createdAt,value
2018-09-15T00:02:11.082Z,57.54
2018-09-15T00:04:39.310Z,57.94
2018-09-15T00:07:07.545Z,58.23
2018-09-15T00:09:35.807Z,57.99
2018-09-15T00:12:04.095Z,58.39
2018-09-15T00:14:32.332Z,58.59
2018-09-15T00:17:00.560Z,58.32
2018-09-15T00:19:29.045Z,59.35
2018-09-15T00:21:57.303Z,58.44
2018-09-15T00:24:25.528Z,59.42
2018-09-15T00:26:53.763Z,58.79
2018-09-15T00:29:21.983Z,59.02
2018-09-15T00:31:50.224Z,58.98
2018-09-15T00:34:18.459Z,59.74
2018-09-15T00:36:46.715Z,58.62
2018-09-15T00:39:14.955Z,59.58
2018-09-15T00:41:43.261Z,60.29
2018-09-15T00:44:11.429Z,60.31
2018-09-15T00:46:39.658Z,59.22
2018-09-15T00:49:07.878Z,59.82
2018-09-15T00:51:36.118Z,60.51
2018-09-15T00:54:04.361Z,59.98
2018-09-15T00:56:32.611Z,59.78
2018-09-15T00:59:00.838Z,60.33
2018-09-15T01:01:33.342Z,59.34
2018-09-15T01:04:02.647Z,60.19
2018-09-15T01:06:30.908Z,60.13
2018-09-15T01:08:59.516Z,60.70
2018-09-15T01:11:27.930Z,61.25
2018-09-15T01:13:56.752Z,61.14
2018-09-15T01:16:24.938Z,59.00
2018-09-15T01:18:53.231Z,60.48
2018-09-15T01:21:22.460Z,60.64
2018-09-15T01:23:50.707Z,59.93
2018-09-15T01:26:18.924Z,60.94
2018-09-15T01:28:50.467Z,60.29
2018-09-15T01:31:20.158Z,60.05
2018-09-15T01:33:48.425Z,60.07
2018-09-15T01:36:16.647Z,58.66
2018-09-15T01:38:44.916Z,58.02
2018-09-15T01:41:13.143Z,58.49
2018-09-15T01:43:41.369Z,57.79
2018-09-15T01:46:09.602Z,57.83
2018-09-15T01:48:37.826Z,57.80
2018-09-15T01:51:06.077Z,56.96
2018-09-15T01:53:34.306Z,56.94
2018-09-15T01:56:02.556Z,57.70
2018-09-15T01:58:30.794Z,57.13
2018-09-15T02:00:59.044Z,57.99
2018-09-15T02:03:28.642Z,57.05
2018-09-15T02:05:57.450Z,57.87
2018-09-15T02:08:25.673Z,58.23
2018-09-15T02:10:53.979Z,58.33
2018-09-15T02:13:23.031Z,58.52
2018-09-15T02:15:51.579Z,58.47
2018-09-15T02:18:19.822Z,58.29
2018-09-15T02:20:48.067Z,59.26
2018-09-15T02:23:16.490Z,59.63
2018-09-15T02:25:44.729Z,58.77
2018-09-15T02:28:12.959Z,58.90
2018-09-15T02:30:41.200Z,59.07
2018-09-15T02:33:09.439Z,58.86
2018-09-15T02:35:37.672Z,58.50
2018-09-15T02:38:05.971Z,58.82
2018-09-15T02:40:34.195Z,59.16
2018-09-15T02:43:02.428Z,59.39
2018-09-15T02:45:30.686Z,59.55
2018-09-15T02:47:58.942Z,60.12
2018-09-15T02:50:27.169Z,58.90
2018-09-15T02:52:55.401Z,59.95
2018-09-15T02:55:23.624Z,60.38
2018-09-15T02:57:51.900Z,59.52
2018-09-15T03:00:20.142Z,59.63
2018-09-15T03:02:48.394Z,59.58
2018-09-15T03:05:16.613Z,59.91
2018-09-15T03:07:44.847Z,59.79
2018-09-15T03:10:13.134Z,59.94
2018-09-15T03:12:41.372Z,60.35
2018-09-15T03:15:09.614Z,61.14
2018-09-15T03:17:37.843Z,61.05
2018-09-15T03:20:06.139Z,61.84
2018-09-15T03:22:34.403Z,61.60
2018-09-15T03:25:02.648Z,61.30
2018-09-15T03:27:30.866Z,63.42
2018-09-15T03:29:59.091Z,62.61
2018-09-15T03:32:27.324Z,62.81
2018-09-15T03:34:55.562Z,63.10
2018-09-15T03:37:23.886Z,63.74
2018-09-15T03:39:52.123Z,62.51
2018-09-15T03:42:20.359Z,64.42
2018-09-15T03:44:48.623Z,64.91
2018-09-15T03:47:16.839Z,64.01
2018-09-15T03:49:45.083Z,63.94
2018-09-15T03:52:13.304Z,63.74
2018-09-15T03:54:41.545Z,64.40
2018-09-15T03:57:09.796Z,63.77
2018-09-15T03:59:38.047Z,64.41
2018-09-15T04:02:06.311Z,65.54
2018-09-15T04:04:34.539Z,65.47
2018-09-15T04:07:02.749Z,65.41
2018-09-15T04:09:30.978Z,65.03
2018-09-15T04:11:59.202Z,64.92
2018-09-15T04:14:27.437Z,65.57
2018-09-15T04:16:55.666Z,64.33
2018-09-15T04:19:23.950Z,64.88
2018-09-15T04:21:52.161Z,64.82
2018-09-15T04:24:20.398Z,65.34
2018-09-15T04:26:48.666Z,65.66
2018-09-15T04:29:16.899Z,66.15
2018-09-15T04:31:45.150Z,65.51
2018-09-15T04:34:13.387Z,65.31
2018-09-15T04:36:41.675Z,66.66
2018-09-15T04:39:11.394Z,65.79
2018-09-15T04:41:39.704Z,65.75
2018-09-15T04:44:08.268Z,65.85
2018-09-15T04:46:36.525Z,65.63
2018-09-15T04:49:04.821Z,65.84
2018-09-15T04:51:33.072Z,66.26
2018-09-15T04:54:01.319Z,66.68
2018-09-15T04:56:29.789Z,66.49
2018-09-15T04:58:59.158Z,66.74
2018-09-15T05:01:27.378Z,66.61
2018-09-15T05:03:55.607Z,67.38
2018-09-15T05:06:23.840Z,67.68
2018-09-15T05:08:52.138Z,67.08
2018-09-15T05:11:20.413Z,67.19
2018-09-15T05:13:48.668Z,68.61
2018-09-15T05:16:16.887Z,67.64
2018-09-15T05:18:45.111Z,67.76
2018-09-15T05:21:13.351Z,67.70
2018-09-15T05:23:41.583Z,68.14
2018-09-15T05:26:09.825Z,67.79
2018-09-15T05:28:38.051Z,68.27
2018-09-15T05:31:06.358Z,67.76
2018-09-15T05:33:34.579Z,68.26
2018-09-15T05:36:04.062Z,68.27
2018-09-15T05:38:32.307Z,68.28
2018-09-15T05:41:00.541Z,68.68
2018-09-15T05:43:28.763Z,68.56
2018-09-15T05:45:57.033Z,68.28
2018-09-15T05:48:25.257Z,68.96
2018-09-15T05:50:53.479Z,67.78
2018-09-15T05:53:21.704Z,68.17
2018-09-15T05:55:49.957Z,67.86
2018-09-15T05:58:18.199Z,68.72
2018-09-15T06:00:46.455Z,68.25
2018-09-15T06:03:14.677Z,68.72
2018-09-15T06:05:42.926Z,68.58
2018-09-15T06:08:11.181Z,68.95
2018-09-15T06:10:39.413Z,69.00
2018-09-15T06:13:07.638Z,68.69
2018-09-15T06:15:35.874Z,69.25
2018-09-15T06:18:04.172Z,69.45
2018-09-15T06:20:32.382Z,69.98
2018-09-15T06:23:00.634Z,68.61
2018-09-15T06:25:28.899Z,69.66
2018-09-15T06:27:57.218Z,68.50
2018-09-15T06:30:25.458Z,68.87
2018-09-15T06:32:53.719Z,68.64
2018-09-15T06:35:22.051Z,67.73
2018-09-15T06:37:50.312Z,67.50
2018-09-15T06:40:18.538Z,68.64
2018-09-15T06:42:46.839Z,68.17
2018-09-15T06:45:15.100Z,67.64
2018-09-15T06:47:43.323Z,66.58
2018-09-15T06:50:11.635Z,66.89
2018-09-15T06:52:39.879Z,65.33
2018-09-15T06:55:08.206Z,65.66
2018-09-15T06:57:36.482Z,64.88
2018-09-15T07:00:04.807Z,64.44
2018-09-15T07:02:33.025Z,64.01
2018-09-15T07:05:01.342Z,62.76
2018-09-15T07:07:29.585Z,60.92
2018-09-15T07:09:57.810Z,58.61
2018-09-15T07:12:26.109Z,58.97
2018-09-15T07:14:54.422Z,61.16
2018-09-15T07:17:22.699Z,61.06
2018-09-15T07:19:50.965Z,61.48
2018-09-15T07:22:19.289Z,62.15
2018-09-15T07:24:47.591Z,62.83
2018-09-15T07:27:15.859Z,58.07
2018-09-15T07:29:44.102Z,58.50
2018-09-15T07:32:12.967Z,54.63
2018-09-15T07:34:41.267Z,52.55
2018-09-15T07:37:09.713Z,56.89
2018-09-15T07:39:38.083Z,55.80
2018-09-15T07:42:06.339Z,57.97
2018-09-15T07:44:35.628Z,58.67
2018-09-15T07:47:03.856Z,58.46
2018-09-15T07:49:32.416Z,59.03
2018-09-15T07:52:00.668Z,59.90
2018-09-15T07:54:28.913Z,59.73
2018-09-15T07:56:57.135Z,60.61
2018-09-15T07:59:25.460Z,60.32
2018-09-15T08:01:53.721Z,60.48
2018-09-15T08:04:21.902Z,60.00
2018-09-15T08:06:50.126Z,60.07
2018-09-15T08:09:18.376Z,60.66
2018-09-15T08:11:46.623Z,60.04
2018-09-15T08:14:14.862Z,60.40
2018-09-15T08:16:43.152Z,60.38
2018-09-15T08:19:11.405Z,59.49
2018-09-15T08:21:39.672Z,57.41
2018-09-15T08:24:07.918Z,58.08
2018-09-15T08:26:36.189Z,59.22
2018-09-15T08:29:04.443Z,59.14
2018-09-15T08:31:32.721Z,59.60
2018-09-15T08:34:00.956Z,59.53
2018-09-15T08:36:29.193Z,58.68
2018-09-15T08:38:57.431Z,58.34
2018-09-15T08:41:25.747Z,58.46
2018-09-15T08:43:53.965Z,58.36
2018-09-15T08:46:22.185Z,59.37
2018-09-15T08:48:50.423Z,55.78
2018-09-15T08:51:18.691Z,56.73
2018-09-15T08:53:46.925Z,55.04
2018-09-15T08:56:15.171Z,55.51
2018-09-15T08:58:43.395Z,54.79
2018-09-15T09:01:11.638Z,54.43
2018-09-15T09:03:39.921Z,54.49
2018-09-15T09:06:08.166Z,54.38
2018-09-15T09:08:36.450Z,55.79
2018-09-15T09:11:04.687Z,55.79
2018-09-15T09:13:32.918Z,57.08
2018-09-15T09:16:01.160Z,57.30
2018-09-15T09:18:29.429Z,57.18
2018-09-15T09:20:57.691Z,57.50
2018-09-15T09:23:25.938Z,56.47
2018-09-15T09:25:54.225Z,57.75
2018-09-15T09:28:22.497Z,57.73
2018-09-15T09:30:52.767Z,57.85
2018-09-15T09:33:21.118Z,58.15
2018-09-15T09:35:49.326Z,58.10
2018-09-15T09:38:17.657Z,57.36
2018-09-15T09:40:45.802Z,57.23
2018-09-15T09:43:14.119Z,58.23
2018-09-15T09:45:42.354Z,57.20
2018-09-15T09:48:10.701Z,56.99
2018-09-15T09:50:38.883Z,55.89
2018-09-15T09:53:07.281Z,54.97
2018-09-15T09:55:35.546Z,56.29
2018-09-15T09:58:03.778Z,57.30
2018-09-15T10:00:37.445Z,56.31
2018-09-15T10:03:05.791Z,57.51
2018-09-15T10:05:34.046Z,57.73
2018-09-15T10:08:02.266Z,57.32
2018-09-15T10:10:30.514Z,57.32
2018-09-15T10:12:58.791Z,57.01
2018-09-15T10:15:27.096Z,57.12
2018-09-15T10:17:55.338Z,56.45
2018-09-15T10:20:23.648Z,56.92
2018-09-15T10:22:51.898Z,55.31
2018-09-15T10:25:20.115Z,55.01
2018-09-15T10:27:48.341Z,55.12
2018-09-15T10:30:16.571Z,54.04
2018-09-15T10:32:44.807Z,52.55
2018-09-15T10:35:13.069Z,52.40
2018-09-15T10:37:41.278Z,51.95
2018-09-15T10:40:09.570Z,50.03
2018-09-15T10:42:37.778Z,50.73
2018-09-15T10:45:06.069Z,48.57
2018-09-15T10:47:34.325Z,48.65
2018-09-15T10:50:02.571Z,49.25
2018-09-15T10:52:30.807Z,49.23
2018-09-15T10:54:59.018Z,50.36
2018-09-15T10:57:27.251Z,50.56
2018-09-15T10:59:55.463Z,49.46
2018-09-15T11:02:23.700Z,49.18
2018-09-15T11:04:51.925Z,48.23
2018-09-15T11:07:20.142Z,48.84
2018-09-15T11:09:48.398Z,48.02
2018-09-15T11:12:16.618Z,48.07
2018-09-15T11:14:44.929Z,48.21
2018-09-15T11:17:13.164Z,49.13
2018-09-15T11:19:41.378Z,48.85
2018-09-15T11:22:09.617Z,48.60
2018-09-15T11:24:37.852Z,49.05
2018-09-15T11:27:06.382Z,49.12
2018-09-15T11:29:34.642Z,47.98
2018-09-15T11:32:03.180Z,48.93
2018-09-15T11:34:31.407Z,47.94
2018-09-15T11:36:59.626Z,48.11
2018-09-15T11:39:27.866Z,46.17
2018-09-15T11:41:56.119Z,47.21
2018-09-15T11:44:24.355Z,47.11
2018-09-15T11:46:52.590Z,46.31
2018-09-15T11:49:20.851Z,45.97
2018-09-15T11:51:49.087Z,46.19
2018-09-15T11:54:17.454Z,44.31
2018-09-15T11:56:45.715Z,44.43
2018-09-15T11:59:14.039Z,44.92
2018-09-15T12:01:42.268Z,44.42
2018-09-15T12:04:11.600Z,46.11
2018-09-15T12:06:39.846Z,47.26
2018-09-15T12:09:08.921Z,45.35
2018-09-15T12:11:37.186Z,46.39
2018-09-15T12:14:05.442Z,46.24
2018-09-15T12:16:33.629Z,46.51
2018-09-15T12:19:01.922Z,46.64
2018-09-15T12:21:30.152Z,46.99
2018-09-15T12:23:58.384Z,45.18
2018-09-15T12:26:26.610Z,45.61
2018-09-15T12:28:54.986Z,45.52
2018-09-15T12:31:23.730Z,45.51
2018-09-15T12:33:51.977Z,44.28
2018-09-15T12:36:20.234Z,43.64
2018-09-15T12:38:48.471Z,43.92
2018-09-15T12:41:16.714Z,44.11
2018-09-15T12:43:44.987Z,44.26
2018-09-15T12:46:13.215Z,43.60
2018-09-15T12:48:41.451Z,43.42
2018-09-15T12:51:09.737Z,43.86
2018-09-15T12:53:38.565Z,42.92
2018-09-15T12:56:06.883Z,44.00
2018-09-15T12:58:35.109Z,43.94
2018-09-15T13:01:03.366Z,44.49
2018-09-15T13:03:31.655Z,44.36
2018-09-15T13:05:59.888Z,45.16
2018-09-15T13:08:28.135Z,45.71
2018-09-15T13:10:56.382Z,45.51
2018-09-15T13:13:24.649Z,44.80
2018-09-15T13:15:52.886Z,45.24
2018-09-15T13:18:21.122Z,44.02
2018-09-15T13:20:51.670Z,44.53
2018-09-15T13:23:20.066Z,42.24
2018-09-15T13:25:48.357Z,42.48
2018-09-15T13:28:16.602Z,41.69
2018-09-15T13:30:44.861Z,42.92
2018-09-15T13:33:13.176Z,43.25
2018-09-15T13:35:41.397Z,42.97
2018-09-15T13:38:09.742Z,44.25
2018-09-15T13:40:37.994Z,43.76
2018-09-15T13:43:06.267Z,43.39
2018-09-15T13:45:34.473Z,43.64
2018-09-15T13:48:02.755Z,42.46
2018-09-15T13:50:31.010Z,43.07
2018-09-15T13:52:59.282Z,42.26
2018-09-15T13:55:27.563Z,42.40
2018-09-15T13:57:55.798Z,42.95
2018-09-15T14:00:24.101Z,42.40
2018-09-15T14:02:52.327Z,42.62
2018-09-15T14:05:20.604Z,41.66
2018-09-15T14:07:48.807Z,41.08
2018-09-15T14:10:19.010Z,40.45
2018-09-15T14:12:45.322Z,39.43
2018-09-15T14:15:13.582Z,38.96
2018-09-15T14:17:41.817Z,39.38
2018-09-15T14:20:10.071Z,38.37
2018-09-15T14:22:38.321Z,38.65
2018-09-15T14:25:06.564Z,37.39
2018-09-15T14:27:34.911Z,38.26
2018-09-15T14:30:03.143Z,38.08
2018-09-15T14:32:36.403Z,38.87
2018-09-15T14:35:04.740Z,39.77
2018-09-15T14:37:32.989Z,39.62
2018-09-15T14:40:01.255Z,40.82
2018-09-15T14:42:29.565Z,38.52
2018-09-15T14:44:57.796Z,38.42
2018-09-15T14:47:26.043Z,38.75
2018-09-15T14:49:54.297Z,38.77
2018-09-15T14:52:22.515Z,39.15
2018-09-15T14:54:50.758Z,39.55
2018-09-15T14:57:18.981Z,40.80
2018-09-15T14:59:47.240Z,41.24
2018-09-15T15:02:15.584Z,40.83
2018-09-15T15:04:43.813Z,41.67
2018-09-15T15:07:12.047Z,40.96
2018-09-15T15:09:40.303Z,41.10
2018-09-15T15:12:08.551Z,40.77
2018-09-15T15:14:37.818Z,40.97
2018-09-15T15:17:06.102Z,41.04
2018-09-15T15:19:34.369Z,41.91
2018-09-15T15:22:02.602Z,42.64
2018-09-15T15:24:30.842Z,41.49
2018-09-15T15:26:59.123Z,41.29
2018-09-15T15:29:27.475Z,41.42
2018-09-15T15:31:55.707Z,42.15
2018-09-15T15:34:23.957Z,41.29
2018-09-15T15:36:52.208Z,41.45
2018-09-15T15:39:20.435Z,42.24
2018-09-15T15:41:49.754Z,41.53
2018-09-15T15:44:18.008Z,41.44
2018-09-15T15:46:47.346Z,42.29
2018-09-15T15:49:15.637Z,41.49
2018-09-15T15:51:43.910Z,42.71
2018-09-15T15:54:12.451Z,42.31
2018-09-15T15:56:40.812Z,43.27
2018-09-15T15:59:09.065Z,42.18
2018-09-15T16:01:37.447Z,43.54
2018-09-15T16:04:05.686Z,42.94
2018-09-15T16:06:33.946Z,42.76
2018-09-15T16:09:05.073Z,42.95
2018-09-15T16:11:33.333Z,42.63
2018-09-15T16:14:01.596Z,42.10
2018-09-15T16:16:29.827Z,43.42
2018-09-15T16:18:58.113Z,43.26
2018-09-15T16:21:26.361Z,43.16
2018-09-15T16:23:54.608Z,43.23
2018-09-15T16:26:22.839Z,43.81
2018-09-15T16:28:51.147Z,43.33
2018-09-15T16:31:19.642Z,42.85
2018-09-15T16:33:47.898Z,44.11
2018-09-15T16:36:19.980Z,44.30
2018-09-15T16:38:48.279Z,44.20
2018-09-15T16:41:16.551Z,44.17
2018-09-15T16:43:50.314Z,43.83
2018-09-15T16:46:19.662Z,44.07
2018-09-15T16:48:49.949Z,44.20
2018-09-15T16:51:18.413Z,44.38
2018-09-15T16:53:47.113Z,43.61
2018-09-15T16:56:15.354Z,44.08
2018-09-15T16:58:44.362Z,44.13
2018-09-15T17:01:12.622Z,44.83
2018-09-15T17:03:40.858Z,44.32
2018-09-15T17:06:09.160Z,44.73
2018-09-15T17:08:47.387Z,46.08
2018-09-15T17:11:15.757Z,45.43
2018-09-15T17:13:44.005Z,46.30
2018-09-15T17:16:12.262Z,46.68
2018-09-15T17:18:42.615Z,46.98
2018-09-15T17:21:11.919Z,47.83
2018-09-15T17:23:40.198Z,47.79
2018-09-15T17:26:08.482Z,47.92
2018-09-15T17:28:44.953Z,48.35
2018-09-15T17:31:13.268Z,48.24
2018-09-15T17:33:41.434Z,48.98
2018-09-15T17:36:09.662Z,48.57
2018-09-15T17:38:37.913Z,48.97
2018-09-15T17:41:06.193Z,49.22
2018-09-15T17:43:34.460Z,50.01
2018-09-15T17:46:02.780Z,49.79
2018-09-15T17:48:31.043Z,50.23
2018-09-15T17:50:59.282Z,50.23
2018-09-15T17:53:27.527Z,50.73
2018-09-15T17:55:55.878Z,51.16
2018-09-15T17:58:24.113Z,50.18
2018-09-15T18:00:52.363Z,51.40
2018-09-15T18:03:20.779Z,51.19
2018-09-15T18:05:48.974Z,51.24
2018-09-15T18:08:17.253Z,51.52
2018-09-15T18:10:45.547Z,51.74
2018-09-15T18:13:13.780Z,52.08
2018-09-15T18:15:42.038Z,52.17
2018-09-15T18:18:10.348Z,53.11
2018-09-15T18:20:38.594Z,53.28
2018-09-15T18:23:06.878Z,54.19
2018-09-15T18:25:35.115Z,53.76
2018-09-15T18:28:03.397Z,54.04
2018-09-15T18:30:32.715Z,54.83
2018-09-15T18:33:00.963Z,54.92
2018-09-15T18:35:29.273Z,55.37
2018-09-15T18:37:57.527Z,54.65
2018-09-15T18:40:25.820Z,54.49
2018-09-15T18:42:54.137Z,55.66
2018-09-15T18:45:22.339Z,56.22
2018-09-15T18:47:50.605Z,56.61
2018-09-15T18:50:18.905Z,56.42
2018-09-15T18:52:47.154Z,57.58
2018-09-15T18:55:15.395Z,57.92
2018-09-15T18:57:43.711Z,57.47
2018-09-15T19:00:11.973Z,58.22
2018-09-15T19:02:40.194Z,57.64
2018-09-15T19:05:08.442Z,58.16
2018-09-15T19:07:36.685Z,57.48
2018-09-15T19:10:04.938Z,57.74
2018-09-15T19:12:33.170Z,57.65
2018-09-15T19:15:01.431Z,57.75
2018-09-15T19:17:29.689Z,57.15
2018-09-15T19:19:57.901Z,56.87
2018-09-15T19:22:26.174Z,57.54
2018-09-15T19:24:54.411Z,57.80
2018-09-15T19:27:22.672Z,57.70
2018-09-15T19:29:50.910Z,57.91
2018-09-15T19:32:19.161Z,58.25
2018-09-15T19:34:47.385Z,59.28
2018-09-15T19:37:15.666Z,58.54
2018-09-15T19:39:43.903Z,57.65
2018-09-15T19:42:12.138Z,58.26
2018-09-15T19:44:40.398Z,58.54
2018-09-15T19:47:08.655Z,59.12
2018-09-15T19:49:36.897Z,58.28
2018-09-15T19:52:05.137Z,58.07
2018-09-15T19:54:33.398Z,58.83
2018-09-15T19:57:01.974Z,58.62
2018-09-15T19:59:30.259Z,58.93
2018-09-15T20:01:58.597Z,58.09
2018-09-15T20:04:26.830Z,58.70
2018-09-15T20:06:56.119Z,58.96
2018-09-15T20:09:29.179Z,59.82
2018-09-15T20:11:57.525Z,60.30
2018-09-15T20:14:27.802Z,60.37
2018-09-15T20:16:55.117Z,59.37
2018-09-15T20:19:22.250Z,59.02
2018-09-15T20:21:50.216Z,59.24
2018-09-15T20:24:18.470Z,59.12
2018-09-15T20:26:46.734Z,59.98
2018-09-15T20:29:15.013Z,59.96
2018-09-15T20:31:43.278Z,59.95
2018-09-15T20:34:11.510Z,60.38
2018-09-15T20:36:39.751Z,60.45
2018-09-15T20:39:09.811Z,59.69
2018-09-15T20:41:38.101Z,60.47
2018-09-15T20:44:08.407Z,60.21
2018-09-15T20:46:36.766Z,61.65
2018-09-15T20:49:06.183Z,60.62
2018-09-15T20:51:34.414Z,61.31
2018-09-15T20:54:02.643Z,61.04
2018-09-15T20:56:30.875Z,61.54
2018-09-15T20:58:59.138Z,60.98
2018-09-15T21:01:27.413Z,61.87
2018-09-15T21:03:55.634Z,61.05
2018-09-15T21:06:23.891Z,61.62
2018-09-15T21:08:52.124Z,61.51
2018-09-15T21:11:20.357Z,60.78
2018-09-15T21:13:48.741Z,62.00
2018-09-15T21:16:17.136Z,62.50
2018-09-15T21:18:45.937Z,63.24
2018-09-15T21:21:14.182Z,63.12
2018-09-15T21:23:42.418Z,63.30
2018-09-15T21:26:10.747Z,62.76
2018-09-15T21:28:39.003Z,63.85
2018-09-15T21:31:07.243Z,63.82
2018-09-15T21:33:35.458Z,65.48
2018-09-15T21:36:03.763Z,65.08
2018-09-15T21:38:32.130Z,65.41
2018-09-15T21:41:00.353Z,65.64
2018-09-15T21:43:28.746Z,66.44
2018-09-15T21:45:57.054Z,65.96
2018-09-15T21:48:25.349Z,65.46
2018-09-15T21:50:53.648Z,66.12
2018-09-15T21:53:21.902Z,66.97
2018-09-15T21:55:50.142Z,65.89
2018-09-15T21:58:19.427Z,66.61
2018-09-15T22:00:47.715Z,66.30
2018-09-15T22:03:20.116Z,65.87
2018-09-15T22:05:48.343Z,66.72
2018-09-15T22:08:16.701Z,67.12
2018-09-15T22:10:46.013Z,66.28
2018-09-15T22:13:14.323Z,65.98
2018-09-15T22:15:42.582Z,66.32
2018-09-15T22:18:10.806Z,66.52
2018-09-15T22:20:39.091Z,66.47
2018-09-15T22:23:07.362Z,66.65
2018-09-15T22:25:35.614Z,66.89
2018-09-15T22:28:03.861Z,66.43
2018-09-15T22:30:32.102Z,66.91
2018-09-15T22:33:00.391Z,66.06
2018-09-15T22:35:28.627Z,66.42
2018-09-15T22:37:56.884Z,68.57
2018-09-15T22:40:25.142Z,68.17
2018-09-15T22:42:53.350Z,67.56
2018-09-15T22:45:21.586Z,67.87
2018-09-15T22:47:49.812Z,67.16
2018-09-15T22:50:21.176Z,67.27
2018-09-15T22:52:49.400Z,67.68
2018-09-15T22:55:17.622Z,68.52
2018-09-15T22:57:45.872Z,68.67
2018-09-15T23:00:14.127Z,68.11
2018-09-15T23:02:42.395Z,68.94
2018-09-15T23:05:10.628Z,68.76
2018-09-15T23:07:38.871Z,68.67
2018-09-15T23:10:07.185Z,69.55
2018-09-15T23:12:35.523Z,70.11
2018-09-15T23:15:03.806Z,69.64
2018-09-15T23:17:32.047Z,69.86
2018-09-15T23:20:00.279Z,70.34
2018-09-15T23:22:28.538Z,70.34
2018-09-15T23:24:56.803Z,69.88
2018-09-15T23:27:25.013Z,69.86
2018-09-15T23:29:53.264Z,70.19
2018-09-15T23:32:21.505Z,71.17
2018-09-15T23:34:49.775Z,70.26
2018-09-15T23:37:18.034Z,70.02
2018-09-15T23:39:46.302Z,69.64
2018-09-15T23:42:14.623Z,70.58
2018-09-15T23:44:42.870Z,71.68
2018-09-15T23:47:11.103Z,72.68
2018-09-15T23:49:39.337Z,72.55
2018-09-15T23:52:07.569Z,71.00
2018-09-15T23:54:35.793Z,71.47
2018-09-15T23:57:04.069Z,72.14
2018-09-15T23:59:32.280Z,71.28
